Latest Weather Observations for Warwick

IDQ60901

Issued at 7:41 pm EST Tuesday 21 April 2015 (issued every 10 minutes, with the page automatically refreshed every 10 minutes)

About weather observations | Map of Brisbane area stations | Latest observations for Brisbane area | Other Formats
Station Details ID: 041525 Name: WARWICK Lat: -28.21 Lon: 152.10 Height: 475.4 m
Data from the previous 72 hours. | See also: Recent months at Warwick
Date/Time
EST
Tmp

°C
App
Tmp
°C
Dew
Point
°C
Rel
Hum
%
Delta-T

°C
Wind Press
QNH
hPa
Press
MSL
hPa
Rain
since
9 am
mm
Dir
 
Spd
km/h
Gust
km/h
Spd
kts
Gust
kts
21/07:30pm 10.5 7.6 4.4 66 2.8 WNW 9 15 5 8 1017.5 1015.9 0.0
21/07:00pm 10.6 7.6 4.0 63 3.0 WNW 9 15 5 8 1017.4 1015.8 0.0
21/06:30pm 10.6 7.5 3.8 63 3.1 WNW 9 15 5 8 1017.0 1015.5 0.0
21/06:00pm 10.3 7.7 4.2 66 2.8 W 7 13 4 7 1016.7 1015.2 0.0
21/05:30pm 11.0 7.6 4.0 62 3.2 W 11 17 6 9 1016.7 1015.2 0.0
21/05:00pm 12.5 8.3 3.6 54 4.1 WSW 15 28 8 15 1016.7 1015.2 0.0
21/04:30pm 13.3 9.0 3.5 51 4.5 W 15 24 8 13 1016.6 1015.1 0.0
21/04:00pm 13.6 8.4 3.7 51 4.6 WSW 20 33 11 18 1016.6 1015.1 0.0
21/03:30pm 14.2 9.2 3.4 48 5.0 WSW 19 30 10 16 1016.5 1015.0 0.0
21/03:00pm 13.5 9.0 4.1 53 4.4 W 17 30 9 16 1016.5 1015.0 0.0
21/02:30pm 13.5 8.7 4.4 54 4.3 W 19 32 10 17 1016.6 1015.1 0.0
21/02:00pm 13.4 8.4 3.7 52 4.5 W 19 32 10 17 1016.8 1015.3 0.0
21/01:30pm 12.5 8.0 4.4 58 3.8 W 17 28 9 15 1017.1 1015.6 0.0
21/01:00pm 11.6 7.6 4.7 62 3.2 W 15 26 8 14 1017.5 1015.9 0.0
21/12:30pm 11.1 5.6 5.9 70 2.5 WNW 24 35 13 19 1017.9 1016.4 0.0
21/12:00pm 12.8 8.2 5.5 61 3.5 WNW 19 28 10 15 1017.9 1016.4 0.0
21/11:30am 11.9 7.4 6.1 67 2.8 WNW 19 24 10 13 1018.2 1016.7 0.0
21/11:00am 11.6 7.2 6.4 70 2.5 NW 19 28 10 15 1018.3 1016.8 0.0
21/10:30am 11.5 7.6 7.0 74 2.2 NW 17 26 9 14 1018.6 1017.1 0.0
21/10:00am 10.5 7.5 7.7 83 1.4 WNW 13 22 7 12 1018.6 1017.1 0.0
21/09:30am 9.8 6.0 7.6 86 1.1 WNW 17 24 9 13 1018.9 1017.4 0.0
21/09:00am 10.2 7.8 6.9 80 1.6 NW 9 15 5 8 1018.8 1017.3 0.8
21/08:30am 9.6 7.3 7.3 85 1.1 NW 9 15 5 8 1018.9 1017.4 0.8
21/08:00am 9.5 7.4 6.8 83 1.3 NW 7 11 4 6 1018.6 1017.1 0.8
21/07:30am 8.2 7.5 6.9 91 0.6 CALM 0 0 0 0 1018.3 1016.8 0.8
21/07:00am 7.5 5.9 6.4 93 0.5 E 4 7 2 4 1018.3 1016.8 0.8
21/06:30am 6.2 5.3 6.0 99 0.1 CALM 0 0 0 0 1018.3 1016.8 0.8
21/06:00am 5.8 4.8 5.8 100 0.0 CALM 0 0 0 0 1018.1 1016.6 0.8
21/05:30am 6.8 5.9 6.2 96 0.3 CALM 0 0 0 0 1018.0 1016.5 0.8
21/05:00am 7.5 6.4 6.9 96 0.3 NE 2 7 1 4 1017.9 1016.4 0.8
21/04:30am 7.6 6.9 7.0 96 0.3 CALM 0 0 0 0 1017.7 1016.1 0.8
21/04:00am 8.4 6.0 7.2 92 0.6 NNW 9 11 5 6 1017.5 1015.9 0.8
21/03:30am 8.8 6.1 7.4 91 0.7 NNW 11 19 6 10 1017.6 1016.0 0.8
21/03:00am 8.9 6.3 7.9 93 0.5 NW 11 17 6 9 1017.5 1015.9 0.8
21/02:30am 9.4 6.9 8.2 92 0.6 NNW 11 15 6 8 1017.9 1016.4 0.8
21/02:00am 9.7 6.9 8.5 92 0.6 NW 13 19 7 10 1018.3 1016.8 0.8
21/01:30am 10.4 7.7 8.8 90 0.8 WNW 13 19 7 10 1018.2 1016.7 0.8
21/01:00am 11.0 8.4 9.2 89 0.9 WNW 13 19 7 10 1018.6 1017.1 0.8
21/12:30am 11.5 9.0 9.8 89 0.9 NW 13 19 7 10 1018.7 1017.2 0.8
 
Date/Time
EST
Tmp

°C
App
Tmp
°C
Dew
Point
°C
Rel
Hum
%
Delta-T

°C
Wind Press
QNH
hPa
Press
MSL
hPa
Rain
since
9 am
mm
Dir
 
Spd
km/h
Gust
km/h
Spd
kts
Gust
kts
20/11:30pm 11.9 10.2 9.8 87 1.1 NW 9 17 5 9 1019.0 1017.5 0.8
20/11:00pm 12.0 10.4 10.1 88 1.0 NW 9 17 5 9 1019.2 1017.7 0.8
20/10:30pm 12.0 10.4 10.1 88 1.0 WNW 9 13 5 7 1019.2 1017.7 0.8
20/10:00pm 12.0 10.0 10.3 89 0.9 WNW 11 17 6 9 1019.7 1018.1 0.8
20/09:30pm 12.2 10.2 10.3 88 1.0 NW 11 17 6 9 1019.7 1018.1 0.8
20/09:00pm 12.2 9.9 10.5 89 0.9 WNW 13 19 7 10 1020.1 1018.6 0.8
20/08:30pm 12.2 9.9 10.5 89 0.9 NW 13 20 7 11 1019.7 1018.1 0.8
20/08:00pm 12.3 10.0 10.6 89 0.9 WNW 13 20 7 11 1019.5 1017.9 0.8
20/07:30pm 12.3 9.3 10.6 89 0.9 WNW 17 24 9 13 1019.1 1017.6 0.8
20/07:00pm 12.4 11.0 10.9 90 0.8 NNW 9 19 5 10 1018.6 1017.1 0.8
20/06:30pm 12.5 10.7 10.8 89 0.9 NNW 11 15 6 8 1018.7 1017.2 0.8
20/06:00pm 12.8 11.2 11.5 92 0.7 NW 11 19 6 10 1018.9 1017.4 0.8
20/05:30pm 12.9 10.9 11.6 92 0.7 WNW 13 22 7 12 1018.7 1017.2 0.8
20/05:00pm 13.5 11.6 11.7 89 1.0 NW 13 19 7 10 1018.5 1017.0 0.4
20/04:30pm 14.2 11.9 11.8 85 1.3 WNW 15 24 8 13 1018.4 1016.9 0.4
20/04:00pm 14.9 13.6 12.6 86 1.3 NW 11 17 6 9 1017.7 1016.1 0.4
20/03:30pm 15.2 13.8 13.3 88 1.1 W 13 20 7 11 1017.7 1016.1 0.4
20/03:00pm 15.4 13.3 13.5 88 1.1 W 17 28 9 15 1017.6 1016.0 0.4
20/02:30pm 15.9 15.1 14.0 88 1.1 WNW 11 19 6 10 1016.8 1015.3 0.4
20/02:00pm 15.9 15.1 15.1 95 0.5 WNW 13 20 7 11 1017.6 1016.0 0.2
20/01:30pm 16.5 17.0 15.5 94 0.6 W 7 13 4 7 1017.6 1016.0 0.2
20/01:00pm 16.4 16.1 15.4 94 0.6 WNW 11 19 6 10 1018.0 1016.5 0.0
20/12:30pm 17.0 17.0 15.3 90 1.0 SW 9 13 5 7 1018.1 1016.6 0.0
20/12:00pm 16.8 16.1 15.3 91 0.9 SW 13 19 7 10 1018.7 1017.2 0.0
20/11:30am 17.0 17.2 15.7 92 0.8 S 9 13 5 7 1018.8 1017.3 0.0
20/11:00am 17.0 16.3 15.5 91 0.9 SSW 13 17 7 9 1019.3 1017.8 0.0
20/10:30am 17.1 17.3 15.8 92 0.8 SSW 9 13 5 7 1019.5 1017.9 0.0
20/10:00am 16.9 16.7 15.7 93 0.7 S 11 19 6 10 1019.7 1018.1 0.0
20/09:30am 16.7 17.0 15.9 95 0.5 S 9 15 5 8 1020.0 1018.5 0.0
20/09:00am 16.8 16.4 16.1 96 0.4 SSW 13 19 7 10 1020.0 1018.5 10.8
20/08:30am 16.6 16.5 16.1 97 0.3 SSW 11 17 6 9 1019.9 1018.4 10.6
20/08:00am 16.5 16.4 16.0 97 0.3 WSW 11 19 6 10 1020.0 1018.5 9.8
20/07:30am 16.7 17.5 16.4 98 0.2 SW 7 9 4 5 1019.7 1018.1 7.8
20/07:00am 16.8 17.7 16.1 96 0.4 W 6 9 3 5 1019.6 1018.0 6.6
20/06:30am 16.6 18.3 16.3 98 0.2 WNW 2 6 1 3 1019.1 1017.6 6.6
20/06:00am 16.6 18.3 16.3 98 0.2 W 2 6 1 3 1019.2 1017.7 6.6
20/05:30am 16.8 19.0 16.5 98 0.2 CALM 0 0 0 0 1019.0 1017.5 6.4
20/05:00am 16.8 18.2 16.5 98 0.2 ENE 4 13 2 7 1018.2 1016.7 6.4
20/04:30am 16.7 18.9 16.4 98 0.2 CALM 0 0 0 0 1019.0 1017.5 6.2
20/04:00am 16.8 19.0 16.5 98 0.2 CALM 0 0 0 0 1018.9 1017.4 5.6
20/03:30am 16.7 18.9 16.4 98 0.2 CALM 0 0 0 0 1018.2 1016.7 5.2
20/03:00am 16.7 18.5 16.4 98 0.2 W 2 7 1 4 1018.6 1017.1 5.0
20/02:30am 16.8 18.2 16.3 97 0.3 WNW 4 7 2 4 1019.0 1017.5 4.8
20/02:00am 16.9 19.1 16.4 97 0.3 CALM 0 0 0 0 1019.3 1017.8 4.2
20/01:30am 17.1 19.3 16.6 97 0.3 CALM 0 0 0 0 1019.6 1018.0 3.6
20/01:00am 17.3 19.7 17.0 98 0.2 CALM 0 0 0 0 1019.7 1018.1 3.2
20/12:30am 17.4 19.8 16.9 97 0.3 CALM 0 0 0 0 1019.8 1018.3 2.8
20/12:00am 17.3 19.6 16.8 97 0.3 CALM 0 0 0 0 1020.1 1018.6 2.6
 
Date/Time
EST
Tmp

°C
App
Tmp
°C
Dew
Point
°C
Rel
Hum
%
Delta-T

°C
Wind Press
QNH
hPa
Press
MSL
hPa
Rain
since
9 am
mm
Dir
 
Spd
km/h
Gust
km/h
Spd
kts
Gust
kts
19/11:30pm 17.5 19.9 17.0 97 0.3 CALM 0 0 0 0 1020.3 1018.8 2.2
19/11:00pm 17.8 20.2 17.0 95 0.5 CALM 0 0 0 0 1020.6 1019.1 2.0
19/10:30pm 17.7 20.2 17.2 97 0.3 CALM 0 0 0 0 1020.5 1019.0 1.4
19/10:00pm 17.9 20.4 17.3 96 0.4 CALM 0 0 0 0 1020.3 1018.8 0.8
19/09:30pm 18.0 20.6 17.4 96 0.4 CALM 0 0 0 0 1020.5 1019.0 0.6
19/09:00pm 18.0 20.6 17.5 97 0.3 CALM 0 0 0 0 1020.5 1019.0 0.6
19/08:30pm 18.2 20.8 17.6 96 0.4 CALM 0 0 0 0 1020.3 1018.8 0.6
19/08:00pm 18.4 21.1 17.8 96 0.4 CALM 0 0 0 0 1020.4 1018.9 0.4
19/07:30pm 18.8 20.3 17.5 92 0.8 WSW 6 9 3 5 1020.2 1018.7 0.2
19/07:00pm 19.5 21.0 17.6 89 1.2 W 6 11 3 6 1020.1 1018.6 0.0
19/06:30pm 19.7 20.6 17.5 87 1.4 WNW 9 15 5 8 1019.6 1018.0 0.0
19/06:00pm 20.0 20.6 16.8 82 2.0 WNW 9 13 5 7 1019.1 1017.6 0.0
19/05:30pm 20.4 20.9 16.5 78 2.4 WNW 9 13 5 7 1018.6 1017.1 0.0
19/05:00pm 20.9 22.1 16.9 78 2.5 W 6 9 3 5 1018.5 1017.0 0.0
19/04:30pm 21.4 22.0 16.7 74 2.9 W 9 13 5 7 1018.5 1017.0 0.0
19/04:00pm 21.5 22.0 16.5 73 3.1 WNW 9 15 5 8 1018.3 1016.8 0.0
19/03:30pm 21.6 22.0 16.4 72 3.2 W 9 15 5 8 1018.0 1016.5 0.0
19/03:00pm 22.2 22.0 16.6 70 3.5 WSW 13 20 7 11 1018.1 1016.6 0.0
19/02:30pm 21.7 21.3 16.3 71 3.3 W 13 19 7 10 1018.5 1017.0 0.0
19/02:00pm 21.5 21.1 16.3 72 3.2 W 13 19 7 10 1018.6 1017.1 0.0
19/01:30pm 21.0 21.4 15.4 70 3.4 WNW 7 17 4 9 1018.8 1017.3 0.0
19/01:00pm 20.7 19.9 15.2 71 3.3 W 13 20 7 11 1019.1 1017.6 0.0
19/12:30pm 21.3 20.9 16.1 72 3.2 WNW 13 22 7 12 1019.5 1017.9 0.0
19/12:00pm 21.8 20.8 16.5 72 3.3 WSW 17 30 9 16 1020.0 1018.5 0.0
19/11:30am 21.9 21.8 16.9 73 3.1 W 13 24 7 13 1020.4 1018.9 0.0
19/11:00am 22.3 21.6 16.5 69 3.6 W 15 22 8 12 1020.6 1019.1 0.0
19/10:30am 22.5 22.0 15.8 66 4.1 NW 13 24 7 13 1020.9 1019.4 0.0
19/10:00am 21.5 21.1 16.1 71 3.3 NW 13 20 7 11 1020.9 1019.4 0.0
19/09:30am 21.2 21.1 16.1 72 3.1 W 11 17 6 9 1020.9 1019.4 0.0
19/09:00am 21.2 21.6 16.3 73 3.0 NNW 9 13 5 7 1020.8 1019.3 0.0
19/08:30am 20.7 23.0 16.8 78 2.4 CALM 0 7 0 4 1020.8 1019.3 0.0
19/08:00am 18.9 20.6 16.3 85 1.6 ENE 2 7 1 4 1020.7 1019.2 0.0
19/07:30am 17.9 19.7 16.4 91 0.9 SSW 2 6 1 3 1020.3 1018.8 0.0
19/07:00am 17.1 19.1 15.9 93 0.7 CALM 0 4 0 2 1020.0 1018.5 0.0
19/06:30am 15.1 16.6 14.6 97 0.3 CALM 0 0 0 0 1019.8 1018.3 0.0
19/06:00am 14.0 14.7 13.5 97 0.3 NNE 2 7 1 4 1019.6 1018.0 0.0
19/05:30am 14.1 14.9 13.6 97 0.3 ENE 2 7 1 4 1019.1 1017.6 0.0
19/05:00am 16.7 16.6 15.0 90 1.0 NNW 9 11 5 6 1018.8 1017.3 0.0
19/04:30am 14.0 13.4 13.5 97 0.3 W 9 13 5 7 1018.9 1017.4 0.0
19/04:00am 15.4 15.8 14.7 96 0.4 NE 6 9 3 5 1018.4 1016.9 0.0
19/03:30am 15.4 17.0 14.9 97 0.3 CALM 0 0 0 0 1018.7 1017.2 0.0
19/03:00am 15.1 16.6 14.6 97 0.3 CALM 0 0 0 0 1018.8 1017.3 0.0
19/02:30am 15.5 15.7 14.3 92 0.7 ESE 6 9 3 5 1019.0 1017.5 0.0
19/02:00am 16.5 16.8 15.0 91 0.9 N 7 9 4 5 1019.5 1017.9 0.0
19/01:30am 16.5 18.3 15.5 94 0.6 CALM 0 4 0 2 1020.1 1018.6 0.0
19/01:00am 16.9 18.7 15.6 92 0.8 CALM 0 0 0 0 1020.2 1018.7 0.0
19/12:30am 17.0 18.9 15.7 92 0.8 CALM 0 0 0 0 1020.4 1018.9 0.0
19/12:00am 19.0 19.9 16.0 83 1.8 N 6 11 3 6 1020.6 1019.1 0.0
 
Date/Time
EST
Tmp

°C
App
Tmp
°C
Dew
Point
°C
Rel
Hum
%
Delta-T

°C
Wind Press
QNH
hPa
Press
MSL
hPa
Rain
since
9 am
mm
Dir
 
Spd
km/h
Gust
km/h
Spd
kts
Gust
kts
18/11:30pm 19.5 20.2 16.2 81 2.0 NNE 7 13 4 7 1020.6 1019.1 0.0
18/11:00pm 19.7 18.1 15.9 79 2.3 NNE 19 24 10 13 1020.6 1019.1 0.0
18/10:30pm 19.2 18.1 16.4 84 1.7 NE 17 22 9 12 1020.8 1019.3 0.0
18/10:00pm 20.1 18.1 15.5 75 2.8 NE 20 28 11 15 1021.1 1019.6 0.0
18/09:30pm 20.2 19.4 15.2 73 3.0 NE 13 19 7 10 1021.1 1019.6 0.0
18/09:00pm 19.9 19.9 16.3 80 2.2 NE 11 15 6 8 1021.1 1019.6 0.0
18/08:30pm 20.0 18.9 16.4 80 2.2 NE 17 20 9 11 1021.2 1019.7 0.0
18/08:00pm 20.2 18.9 15.7 75 2.7 NNE 17 22 9 12 1021.1 1019.6 0.0

Latest Capital City Observations: Canberra | Sydney | Melbourne | Brisbane | Adelaide | Perth | Hobart | Darwin

Other Formats:

Comma delimited format used in spreadsheet applications
http://www.bom.gov.au/fwo/IDQ60901/IDQ60901.94555.axf

JavaScript Object Notation format (JSON) in row-major order
http://www.bom.gov.au/fwo/IDQ60901/IDQ60901.94555.json